createdAt,value
2022-11-17T00:02:21.451Z,81.20
2022-11-17T00:04:48.179Z,81.30
2022-11-17T00:07:14.949Z,81.30
2022-11-17T00:09:41.772Z,81.20
2022-11-17T00:12:32.467Z,81.30
2022-11-17T00:14:59.702Z,81.30
2022-11-17T00:17:26.387Z,81.20
2022-11-17T00:20:11.738Z,81.20
2022-11-17T00:22:38.386Z,81.20
2022-11-17T00:25:05.470Z,81.30
2022-11-17T00:27:32.148Z,81.30
2022-11-17T00:29:58.848Z,81.30
2022-11-17T00:32:44.126Z,81.40
2022-11-17T00:35:10.854Z,81.30
2022-11-17T00:38:00.170Z,81.40
2022-11-17T00:40:27.263Z,81.30
2022-11-17T00:42:53.926Z,81.30
2022-11-17T00:45:20.617Z,81.10
2022-11-17T00:47:48.074Z,81.10
2022-11-17T00:50:15.047Z,81.10
2022-11-17T00:52:41.784Z,81.10
2022-11-17T00:55:08.514Z,81.10
2022-11-17T00:57:35.207Z,81.00
2022-11-17T01:00:01.951Z,81.10
2022-11-17T01:02:28.604Z,81.30
2022-11-17T01:04:55.260Z,81.20
2022-11-17T01:07:22.853Z,81.20
2022-11-17T01:09:49.628Z,81.10
2022-11-17T01:12:16.298Z,81.10
2022-11-17T01:14:43.136Z,81.00
2022-11-17T01:17:09.800Z,81.70
2022-11-17T01:19:36.455Z,80.70
2022-11-17T01:22:03.912Z,80.70
2022-11-17T01:24:30.652Z,80.50
2022-11-17T01:26:57.433Z,80.40
2022-11-17T01:29:24.134Z,80.30
2022-11-17T01:31:52.242Z,80.30
2022-11-17T01:34:19.252Z,81.00
2022-11-17T01:37:04.554Z,80.00
2022-11-17T01:39:31.795Z,80.00
2022-11-17T01:42:02.628Z,79.90
2022-11-17T01:44:54.921Z,80.00
2022-11-17T01:47:24.332Z,80.00
2022-11-17T01:50:00.101Z,79.90
2022-11-17T01:52:29.214Z,79.90
2022-11-17T01:54:57.545Z,79.80
2022-11-17T01:57:33.279Z,79.60
2022-11-17T02:00:06.666Z,79.60
2022-11-17T02:02:34.761Z,79.60
2022-11-17T02:05:07.618Z,79.50
2022-11-17T02:07:39.575Z,79.60
2022-11-17T02:10:07.236Z,79.40
2022-11-17T02:12:36.684Z,79.50
2022-11-17T02:15:05.727Z,79.50
2022-11-17T02:17:37.986Z,79.50
2022-11-17T02:20:10.590Z,79.30
2022-11-17T02:22:58.695Z,79.20
2022-11-17T02:25:57.230Z,79.30
2022-11-17T02:28:31.372Z,79.30
2022-11-17T02:31:10.252Z,79.20
2022-11-17T02:34:17.390Z,79.20
2022-11-17T02:37:12.680Z,79.00
2022-11-17T02:39:51.202Z,78.90
2022-11-17T02:42:48.022Z,78.70
2022-11-17T02:45:21.253Z,78.70
2022-11-17T02:47:50.851Z,78.60
2022-11-17T02:50:25.295Z,78.60
2022-11-17T02:52:54.766Z,78.30
2022-11-17T02:55:21.637Z,78.20
2022-11-17T02:57:49.581Z,78.10
2022-11-17T03:00:20.501Z,78.10
2022-11-17T03:03:29.662Z,78.00
2022-11-17T03:06:08.600Z,77.80
2022-11-17T03:08:53.778Z,77.80
2022-11-17T03:11:29.625Z,77.80
2022-11-17T03:14:10.047Z,77.80
2022-11-17T03:17:10.243Z,77.90
2022-11-17T03:20:09.771Z,78.00
2022-11-17T03:22:59.713Z,77.90
2022-11-17T03:25:28.522Z,77.60
2022-11-17T03:27:59.737Z,77.60
2022-11-17T03:30:29.961Z,77.40
2022-11-17T03:33:06.833Z,77.30
2022-11-17T03:35:38.474Z,77.20
2022-11-17T03:38:10.532Z,77.20
2022-11-17T03:40:41.101Z,77.10
2022-11-17T03:43:12.090Z,77.00
2022-11-17T03:45:43.007Z,77.30
2022-11-17T03:48:40.809Z,77.70
2022-11-17T03:51:18.663Z,78.00
2022-11-17T03:53:47.001Z,78.40
2022-11-17T03:56:44.234Z,78.40
2022-11-17T03:59:33.148Z,78.40
2022-11-17T04:02:00.094Z,78.40
2022-11-17T04:04:48.542Z,78.60
2022-11-17T04:07:15.329Z,78.80
2022-11-17T04:09:42.145Z,78.80
2022-11-17T04:12:27.468Z,78.90
2022-11-17T04:15:12.972Z,79.00
2022-11-17T04:17:39.872Z,79.00
2022-11-17T04:20:07.324Z,79.10
2022-11-17T04:22:34.011Z,79.10
2022-11-17T04:25:00.684Z,79.20
2022-11-17T04:27:45.986Z,79.20
2022-11-17T04:30:12.898Z,79.30
2022-11-17T04:32:39.571Z,79.30
2022-11-17T04:35:07.472Z,79.50
2022-11-17T04:37:34.433Z,79.40
2022-11-17T04:40:01.443Z,79.50
2022-11-17T04:42:29.069Z,79.60
2022-11-17T04:44:55.744Z,79.60
2022-11-17T04:47:22.414Z,79.60
2022-11-17T04:49:53.917Z,79.70
2022-11-17T04:52:24.221Z,79.70
2022-11-17T04:54:53.603Z,79.80
2022-11-17T04:57:20.254Z,79.80
2022-11-17T04:59:46.910Z,79.90
2022-11-17T05:02:13.615Z,80.00
2022-11-17T05:04:58.622Z,80.00
2022-11-17T05:07:25.408Z,80.10
2022-11-17T05:09:52.267Z,80.30
2022-11-17T05:12:37.677Z,80.30
2022-11-17T05:15:04.969Z,80.30
2022-11-17T05:17:31.656Z,80.40
2022-11-17T05:19:58.366Z,80.40
2022-11-17T05:22:43.768Z,80.40
2022-11-17T05:25:10.934Z,80.40
2022-11-17T05:27:38.011Z,80.40
2022-11-17T05:30:06.772Z,81.20
2022-11-17T05:32:33.537Z,80.50
2022-11-17T05:35:00.280Z,80.50
2022-11-17T05:37:27.040Z,80.60
2022-11-17T05:39:53.918Z,80.70
2022-11-17T05:42:20.708Z,80.70
2022-11-17T05:44:48.577Z,80.90
2022-11-17T05:47:15.630Z,80.90
2022-11-17T05:49:42.300Z,80.90
2022-11-17T05:52:09.009Z,81.00
2022-11-17T05:54:35.672Z,81.00
2022-11-17T05:57:06.981Z,81.10
2022-11-17T05:59:38.875Z,81.10
2022-11-17T06:02:12.557Z,81.10
2022-11-17T06:04:40.101Z,81.10
2022-11-17T06:07:07.563Z,81.20
2022-11-17T06:09:36.684Z,81.10
2022-11-17T06:12:06.218Z,81.20
2022-11-17T06:14:34.365Z,81.30
2022-11-17T06:17:06.575Z,81.30
2022-11-17T06:19:39.835Z,81.30
2022-11-17T06:22:14.546Z,81.40
2022-11-17T06:24:44.145Z,81.30
2022-11-17T06:27:15.999Z,81.30
2022-11-17T06:29:44.853Z,81.30
2022-11-17T06:32:16.927Z,82.30
2022-11-17T06:34:48.025Z,82.60
2022-11-17T06:37:17.251Z,82.70
2022-11-17T06:39:43.906Z,82.70
2022-11-17T06:42:10.553Z,82.40
2022-11-17T06:44:37.229Z,82.40
2022-11-17T06:47:03.981Z,82.20
2022-11-17T06:49:30.671Z,82.20
2022-11-17T06:55:38.658Z,82.00
2022-11-17T06:58:07.750Z,81.80
2022-11-17T07:00:36.199Z,81.80
2022-11-17T07:03:09.089Z,81.70
2022-11-17T07:05:39.900Z,81.70
2022-11-17T07:08:08.471Z,82.20
2022-11-17T07:10:36.030Z,81.60
2022-11-17T07:13:03.374Z,81.70
2022-11-17T07:15:30.582Z,81.70
2022-11-17T07:17:58.149Z,81.60
2022-11-17T07:20:24.953Z,81.30
2022-11-17T07:22:52.027Z,81.10
2022-11-17T07:25:22.392Z,81.00
2022-11-17T07:27:56.804Z,80.80
2022-11-17T07:30:23.528Z,80.50
2022-11-17T07:32:54.513Z,81.00
2022-11-17T07:35:21.585Z,80.60
2022-11-17T07:37:48.268Z,79.80
2022-11-17T07:40:15.986Z,79.70
2022-11-17T07:42:47.649Z,79.50
2022-11-17T07:45:14.401Z,79.30
2022-11-17T07:47:41.118Z,79.10
2022-11-17T07:50:08.196Z,78.90
2022-11-17T07:52:40.157Z,78.60
2022-11-17T07:55:08.356Z,78.60
2022-11-17T07:57:35.681Z,78.50
2022-11-17T08:00:02.609Z,78.50
2022-11-17T08:02:29.286Z,78.30
2022-11-17T08:04:56.074Z,78.00
2022-11-17T08:07:22.828Z,77.90
2022-11-17T08:09:49.606Z,77.50
2022-11-17T08:12:16.313Z,77.50
2022-11-17T08:14:43.019Z,77.30
2022-11-17T08:17:09.894Z,77.10
2022-11-17T08:19:36.636Z,76.90
2022-11-17T08:22:03.402Z,76.80
2022-11-17T08:24:30.150Z,76.70
2022-11-17T08:26:56.880Z,76.70
2022-11-17T08:29:24.667Z,76.60
2022-11-17T08:31:51.686Z,76.80
2022-11-17T08:34:18.391Z,77.00
2022-11-17T08:36:45.121Z,77.00
2022-11-17T08:39:11.873Z,77.20
2022-11-17T08:41:38.658Z,77.30
2022-11-17T08:44:05.611Z,77.30
2022-11-17T08:46:32.415Z,77.30
2022-11-17T08:49:01.131Z,77.40
2022-11-17T08:51:29.300Z,77.40
2022-11-17T08:53:56.219Z,77.80
2022-11-17T08:56:23.209Z,77.90
2022-11-17T08:58:49.935Z,77.90
2022-11-17T09:01:16.988Z,78.40
2022-11-17T09:03:45.799Z,79.00
2022-11-17T09:06:13.628Z,79.20
2022-11-17T09:08:48.115Z,79.30
2022-11-17T09:11:16.535Z,80.40
2022-11-17T09:13:45.585Z,81.50
2022-11-17T09:16:12.829Z,81.60
2022-11-17T09:18:40.833Z,81.70
2022-11-17T09:21:10.427Z,81.60
2022-11-17T09:23:37.602Z,81.50
2022-11-17T09:26:15.307Z,81.40
2022-11-17T09:28:43.996Z,81.40
2022-11-17T09:31:17.411Z,81.50
2022-11-17T09:33:44.621Z,81.50
2022-11-17T09:36:12.909Z,81.40
2022-11-17T09:38:40.387Z,81.30
2022-11-17T09:41:15.761Z,81.20
2022-11-17T09:44:07.347Z,81.00
2022-11-17T09:46:45.123Z,81.00
2022-11-17T09:49:34.946Z,80.90
2022-11-17T09:52:10.606Z,80.80
2022-11-17T09:54:50.596Z,80.60
2022-11-17T09:57:43.473Z,80.70
2022-11-17T10:00:14.091Z,80.60
2022-11-17T10:02:45.098Z,80.40
2022-11-17T10:05:30.273Z,80.40
2022-11-17T10:08:11.981Z,80.40
2022-11-17T10:10:53.069Z,80.40
2022-11-17T10:13:27.911Z,80.40
2022-11-17T10:15:59.007Z,80.50
2022-11-17T10:18:38.354Z,80.80
2022-11-17T10:21:06.959Z,80.70
2022-11-17T10:23:46.055Z,80.60
2022-11-17T10:26:15.522Z,80.50
2022-11-17T10:28:42.787Z,80.50
2022-11-17T10:31:19.436Z,80.50
2022-11-17T10:33:48.657Z,80.60
2022-11-17T10:36:29.147Z,80.50
2022-11-17T10:38:58.596Z,80.40
2022-11-17T10:41:42.095Z,80.10
2022-11-17T10:44:25.540Z,79.60
2022-11-17T10:47:02.907Z,79.10
2022-11-17T10:49:40.771Z,79.30
2022-11-17T10:52:16.318Z,78.10
2022-11-17T10:54:43.748Z,78.10
2022-11-17T10:57:17.649Z,77.80
2022-11-17T10:59:56.822Z,77.30
2022-11-17T11:02:35.734Z,77.00
2022-11-17T11:05:10.353Z,75.40
2022-11-17T11:07:38.043Z,74.10
2022-11-17T11:10:14.431Z,76.00
2022-11-17T11:12:59.885Z,76.10
2022-11-17T11:15:32.716Z,76.20
2022-11-17T11:17:59.408Z,76.40
2022-11-17T11:20:47.616Z,76.20
2022-11-17T11:23:39.538Z,76.30
2022-11-17T11:26:23.627Z,76.30
2022-11-17T11:29:10.535Z,76.50
2022-11-17T11:35:50.636Z,73.30
2022-11-17T11:38:30.073Z,76.90
2022-11-17T11:41:09.115Z,77.60
2022-11-17T11:43:45.574Z,79.10
2022-11-17T11:46:43.373Z,81.10
2022-11-17T11:49:21.505Z,82.20
2022-11-17T11:51:51.375Z,82.60
2022-11-17T11:54:40.424Z,82.50
2022-11-17T11:57:13.813Z,82.30
2022-11-17T11:59:50.836Z,81.90
2022-11-17T12:02:43.121Z,81.90
2022-11-17T12:05:25.639Z,81.30
2022-11-17T12:08:25.711Z,81.00
2022-11-17T12:11:46.103Z,80.70
2022-11-17T12:14:18.713Z,80.40
2022-11-17T12:16:47.902Z,80.20
2022-11-17T12:19:42.450Z,80.10
2022-11-17T12:22:09.710Z,80.10
2022-11-17T12:24:41.686Z,79.90
2022-11-17T12:27:47.447Z,79.60
2022-11-17T12:30:32.980Z,79.60
2022-11-17T12:33:01.358Z,79.80
2022-11-17T12:35:32.823Z,79.60
2022-11-17T12:38:17.343Z,79.60
2022-11-17T12:40:54.076Z,79.60
2022-11-17T12:43:30.654Z,79.50
2022-11-17T12:46:03.518Z,79.40
2022-11-17T12:48:35.125Z,79.40
2022-11-17T12:51:15.254Z,79.30
2022-11-17T12:54:05.680Z,79.30
2022-11-17T12:56:50.881Z,79.30
2022-11-17T12:59:51.869Z,79.30
2022-11-17T13:02:21.505Z,79.20
2022-11-17T13:04:54.718Z,79.20
2022-11-17T13:07:23.883Z,79.20
2022-11-17T13:09:57.206Z,79.10
2022-11-17T13:12:29.475Z,79.20
2022-11-17T13:15:02.577Z,79.00
2022-11-17T13:17:43.036Z,79.00
2022-11-17T13:20:30.061Z,79.10
2022-11-17T13:23:00.907Z,79.10
2022-11-17T13:25:27.736Z,79.10
2022-11-17T13:27:59.803Z,79.10
2022-11-17T13:30:31.354Z,79.10
2022-11-17T13:33:01.726Z,79.00
2022-11-17T13:35:36.183Z,79.10
2022-11-17T13:38:12.295Z,79.10
2022-11-17T13:40:41.577Z,79.10
2022-11-17T13:43:13.417Z,79.00
2022-11-17T13:45:40.653Z,79.00
2022-11-17T13:48:27.307Z,79.00
2022-11-17T13:50:54.006Z,78.90
2022-11-17T13:53:26.375Z,78.90
2022-11-17T13:55:53.483Z,79.00
2022-11-17T13:58:26.963Z,79.00
2022-11-17T14:00:57.596Z,78.90
2022-11-17T14:03:36.226Z,79.00
2022-11-17T14:06:11.438Z,79.00
2022-11-17T14:08:40.031Z,79.10
2022-11-17T14:11:12.863Z,79.00
2022-11-17T14:13:44.826Z,79.00
2022-11-17T14:16:24.968Z,79.00
2022-11-17T14:19:22.358Z,79.00
2022-11-17T14:22:01.511Z,78.90
2022-11-17T14:24:28.810Z,78.90
2022-11-17T14:26:56.227Z,78.90
2022-11-17T14:29:23.016Z,78.90
2022-11-17T14:31:49.756Z,78.90
2022-11-17T14:34:17.369Z,78.90
2022-11-17T14:36:44.424Z,78.90
2022-11-17T14:39:16.656Z,78.80
2022-11-17T14:41:45.537Z,78.80
2022-11-17T14:44:12.371Z,78.80
2022-11-17T14:46:39.165Z,78.80
2022-11-17T14:49:05.975Z,78.90
2022-11-17T14:51:33.272Z,78.80
2022-11-17T14:54:00.265Z,78.80
2022-11-17T14:56:27.039Z,78.70
2022-11-17T14:58:59.148Z,78.80
2022-11-17T15:01:31.697Z,78.80
2022-11-17T15:04:04.170Z,78.80
2022-11-17T15:06:42.361Z,78.80
2022-11-17T15:09:13.820Z,78.80
2022-11-17T15:11:40.535Z,78.80
2022-11-17T15:14:07.555Z,78.70
2022-11-17T15:16:34.632Z,78.70
2022-11-17T15:19:02.664Z,78.70
2022-11-17T15:21:29.386Z,78.70
2022-11-17T15:23:56.097Z,78.70
2022-11-17T15:26:23.740Z,78.70
2022-11-17T15:28:50.670Z,78.60
2022-11-17T15:31:19.901Z,78.60
2022-11-17T15:33:48.020Z,78.60
2022-11-17T15:36:17.366Z,78.60
2022-11-17T15:38:45.052Z,78.60
2022-11-17T15:41:13.352Z,79.00
2022-11-17T15:43:41.920Z,78.60
2022-11-17T15:46:17.274Z,79.30
2022-11-17T15:48:46.467Z,78.60
2022-11-17T15:51:15.955Z,78.50
2022-11-17T15:53:44.282Z,78.50
2022-11-17T15:56:17.031Z,78.50
2022-11-17T15:58:44.534Z,78.60
2022-11-17T16:01:16.789Z,78.50
2022-11-17T16:03:45.272Z,78.50
2022-11-17T16:06:12.911Z,78.50
2022-11-17T16:08:40.028Z,78.40
2022-11-17T16:11:07.551Z,78.40
2022-11-17T16:13:34.346Z,78.40
2022-11-17T16:16:01.092Z,78.40
2022-11-17T16:18:27.954Z,78.40
2022-11-17T16:20:55.546Z,78.40
2022-11-17T16:23:23.755Z,78.50
2022-11-17T16:25:50.661Z,78.40
2022-11-17T16:28:17.729Z,78.40
2022-11-17T16:30:44.681Z,78.40
2022-11-17T16:33:13.303Z,78.40
2022-11-17T16:35:41.471Z,78.40
2022-11-17T16:38:13.871Z,78.40
2022-11-17T16:40:41.227Z,78.40
2022-11-17T16:43:12.046Z,78.40
2022-11-17T16:45:45.980Z,78.30
2022-11-17T16:48:12.881Z,78.30
2022-11-17T16:50:40.883Z,78.30
2022-11-17T16:53:07.786Z,78.40
2022-11-17T16:55:35.724Z,78.30
2022-11-17T16:58:03.631Z,78.30
2022-11-17T17:00:30.803Z,78.30
2022-11-17T17:02:57.694Z,78.30
2022-11-17T17:05:25.585Z,78.50
2022-11-17T17:07:52.281Z,78.20
2022-11-17T17:10:18.999Z,78.30
2022-11-17T17:12:45.737Z,78.30
2022-11-17T17:15:12.559Z,79.00
2022-11-17T17:17:39.259Z,78.10
2022-11-17T17:20:06.663Z,78.30
2022-11-17T17:22:33.394Z,78.10
2022-11-17T17:25:00.113Z,78.20
2022-11-17T17:27:31.218Z,78.20
2022-11-17T17:29:58.052Z,78.10
2022-11-17T17:32:24.839Z,78.00
2022-11-17T17:34:51.785Z,78.00
2022-11-17T17:37:18.498Z,78.00
2022-11-17T17:39:45.210Z,78.10
2022-11-17T17:42:12.742Z,78.10
2022-11-17T17:44:49.115Z,78.00
2022-11-17T17:47:15.831Z,78.00
2022-11-17T17:49:42.535Z,78.10
2022-11-17T17:52:13.653Z,78.30
2022-11-17T17:54:40.838Z,78.00
2022-11-17T17:57:07.854Z,78.00
2022-11-17T17:59:34.547Z,78.00
2022-11-17T18:02:01.283Z,78.00
2022-11-17T18:04:28.871Z,78.10
2022-11-17T18:06:56.657Z,78.90
2022-11-17T18:09:23.482Z,78.10
2022-11-17T18:11:51.207Z,78.10
2022-11-17T18:14:23.782Z,78.10
2022-11-17T18:16:51.627Z,78.10
2022-11-17T18:19:19.341Z,78.10
2022-11-17T18:21:46.320Z,78.10
2022-11-17T18:24:13.160Z,78.10
2022-11-17T18:26:41.182Z,78.10
2022-11-17T18:29:13.573Z,78.20
2022-11-17T18:31:40.749Z,78.10
2022-11-17T18:34:14.265Z,78.10
2022-11-17T18:36:41.053Z,78.10
2022-11-17T18:39:08.029Z,78.10
2022-11-17T18:41:36.220Z,78.20
2022-11-17T18:44:03.245Z,78.30
2022-11-17T18:46:31.988Z,78.30
2022-11-17T18:48:59.498Z,78.30
2022-11-17T18:51:28.998Z,78.40
2022-11-17T18:53:57.930Z,78.30
2022-11-17T18:56:27.494Z,78.20
2022-11-17T19:02:35.367Z,78.30
2022-11-17T19:05:02.039Z,78.20
2022-11-17T19:07:28.753Z,78.30
2022-11-17T19:09:55.521Z,78.30
2022-11-17T19:12:22.191Z,78.30
2022-11-17T19:14:48.879Z,78.30
2022-11-17T19:17:15.563Z,78.30
2022-11-17T19:19:42.234Z,78.30
2022-11-17T19:22:08.904Z,78.30
2022-11-17T19:24:35.593Z,78.20
2022-11-17T19:27:02.389Z,78.30
2022-11-17T19:29:29.046Z,78.30
2022-11-17T19:31:55.802Z,78.20
2022-11-17T19:34:22.576Z,78.20
2022-11-17T19:36:49.287Z,78.20
2022-11-17T19:39:16.978Z,78.40
2022-11-17T19:41:45.108Z,78.20
2022-11-17T19:44:12.303Z,78.20
2022-11-17T19:46:39.204Z,78.10
2022-11-17T19:49:07.557Z,78.40
2022-11-17T19:51:36.893Z,78.20
2022-11-17T19:54:08.815Z,78.20
2022-11-17T19:56:35.960Z,78.20
2022-11-17T19:59:03.392Z,78.10
2022-11-17T20:01:31.129Z,78.30
2022-11-17T20:04:03.054Z,78.10
2022-11-17T20:06:35.368Z,78.30
2022-11-17T20:09:10.663Z,78.30
2022-11-17T20:11:37.980Z,78.30
2022-11-17T20:14:04.806Z,78.30
2022-11-17T20:16:32.027Z,78.10
2022-11-17T20:19:02.509Z,78.30
2022-11-17T20:21:30.858Z,78.10
2022-11-17T20:23:59.071Z,78.30
2022-11-17T20:26:28.655Z,78.10
2022-11-17T20:28:56.553Z,78.30
2022-11-17T20:31:25.154Z,78.10
2022-11-17T20:33:56.288Z,78.10
2022-11-17T20:36:25.941Z,78.10
2022-11-17T20:38:54.229Z,78.00
2022-11-17T20:41:23.313Z,78.00
2022-11-17T20:43:51.810Z,78.00
2022-11-17T20:46:19.185Z,78.10
2022-11-17T20:48:46.066Z,78.00
2022-11-17T20:51:15.059Z,78.00
2022-11-17T20:53:42.053Z,78.00
2022-11-17T20:56:11.374Z,78.00
2022-11-17T20:58:38.362Z,78.00
2022-11-17T21:01:14.561Z,78.00
2022-11-17T21:03:41.621Z,78.00
2022-11-17T21:06:09.064Z,78.00
2022-11-17T21:08:38.708Z,78.00
2022-11-17T21:11:08.172Z,77.90
2022-11-17T21:13:36.194Z,77.90
2022-11-17T21:16:03.902Z,77.90
2022-11-17T21:18:30.704Z,77.90
2022-11-17T21:20:59.439Z,77.80
2022-11-17T21:23:27.443Z,77.80
2022-11-17T21:25:54.161Z,77.80
2022-11-17T21:28:20.870Z,77.70
2022-11-17T21:30:47.582Z,77.70
2022-11-17T21:33:14.346Z,77.60
2022-11-17T21:35:41.094Z,77.60
2022-11-17T21:38:08.888Z,77.70
2022-11-17T21:40:35.561Z,77.80
2022-11-17T21:43:02.312Z,77.70
2022-11-17T21:45:29.063Z,77.70
2022-11-17T21:47:59.445Z,77.70
2022-11-17T21:50:26.394Z,77.60
2022-11-17T21:52:53.080Z,77.70
2022-11-17T21:55:19.737Z,77.60
2022-11-17T21:57:50.539Z,77.60
2022-11-17T22:00:17.915Z,77.60
2022-11-17T22:02:44.654Z,77.60
2022-11-17T22:05:11.522Z,77.60
2022-11-17T22:07:38.440Z,77.50
2022-11-17T22:10:05.753Z,77.50
2022-11-17T22:12:32.422Z,77.50
2022-11-17T22:14:59.144Z,77.50
2022-11-17T22:17:25.815Z,77.50
2022-11-17T22:19:52.481Z,77.50
2022-11-17T22:22:19.189Z,77.40
2022-11-17T22:24:49.825Z,77.40
2022-11-17T22:27:17.085Z,77.50
2022-11-17T22:29:43.899Z,77.40
2022-11-17T22:32:10.571Z,77.40
2022-11-17T22:34:37.254Z,77.40
2022-11-17T22:37:04.202Z,77.50
2022-11-17T22:39:30.908Z,77.50
2022-11-17T22:41:57.595Z,77.40
2022-11-17T22:44:24.953Z,77.40
2022-11-17T22:46:51.659Z,77.40
2022-11-17T22:49:18.578Z,77.40
2022-11-17T22:52:03.980Z,77.40
2022-11-17T22:54:31.348Z,77.40
2022-11-17T22:56:58.847Z,77.40
2022-11-17T22:59:27.191Z,77.40
2022-11-17T23:01:54.567Z,77.40
2022-11-17T23:04:22.989Z,77.30
2022-11-17T23:06:49.903Z,77.30
2022-11-17T23:09:17.215Z,77.30
2022-11-17T23:11:44.129Z,77.30
2022-11-17T23:14:13.451Z,77.20
2022-11-17T23:16:41.074Z,77.20
2022-11-17T23:19:11.096Z,77.20
2022-11-17T23:21:37.824Z,77.20
2022-11-17T23:24:04.899Z,77.10
2022-11-17T23:26:31.588Z,77.10
2022-11-17T23:28:58.318Z,77.00
2022-11-17T23:31:27.754Z,77.00
2022-11-17T23:33:54.537Z,77.00
2022-11-17T23:36:22.274Z,77.00
2022-11-17T23:38:50.294Z,77.00
2022-11-17T23:41:19.426Z,77.00
2022-11-17T23:43:46.567Z,76.90
2022-11-17T23:46:16.043Z,76.90
2022-11-17T23:48:43.532Z,76.90
2022-11-17T23:51:13.602Z,76.90
2022-11-17T23:53:40.695Z,77.70
2022-11-17T23:56:08.671Z,76.90
2022-11-17T23:58:35.658Z,76.90
